West Copake, New York
Current Conditions -  °F | °C
As of 12:54 PM on Thursday 18 Dec 2014 (Local Time) from KPSF Reporting Station
Overcast Overcast  
Wind Chill: 18°   Ceiling: 1900
Heat Index: 31°   Visibility: 8mi
Dew Point: 26°   Wind: 21mph
Humidity: 82%   Direction: 290°WNW
Pressure: 29.81"   Gusts: 37mph
Location:  42.1°N, 73.58°W
Report Text: KPSF 181754Z AUTO 29018G32KT 8SM OVC019 M01/M03 A2981 RMK AO2 PK WND 30032/1745 SLP105 60000 T10061033 10000 21011 58014
Loading
Personal Weather Stations






























Interactive Weather Map New forecast layout! Learn more

10-Day Weather Forecast

Advertisements
Track Severe Weather on mobile